Time;durP1;ratioP1;P1;durP2;ratioP2;P2;SDS_P1;SDS_P2;PMS_P1;PMS_P2;Temp;Humidity;BMP_temperature;BMP_pressure;BME280_temperature;BME280_humidity;BME280_pressure;Samples;Min_cycle;Max_cycle;Signal;HPM_P1;HPM_P2
2024/04/06 00:01:00;;;;;;;2.40;1.05;;;12.80;99.90;;;;;;6134737;23;20316;-79
2024/04/06 00:03:27;;;;;;;1.65;0.70;;;12.90;99.90;;;;;;6135824;23;20017;-80
2024/04/06 00:05:53;;;;;;;1.52;0.60;;;12.90;99.90;;;;;;6146328;23;20360;-80
2024/04/06 00:08:19;;;;;;;1.90;0.60;;;12.80;99.90;;;;;;6166973;23;20334;-79
2024/04/06 00:10:46;;;;;;;2.53;0.60;;;12.80;99.90;;;;;;6111422;23;20013;-79
2024/04/06 00:13:12;;;;;;;2.33;0.50;;;12.80;99.90;;;;;;6171052;23;20428;-80
2024/04/06 00:15:39;;;;;;;1.30;0.60;;;12.70;99.90;;;;;;6110872;23;20505;-78
2024/04/06 00:18:05;;;;;;;1.90;0.50;;;12.70;99.90;;;;;;6186010;23;20021;-79
2024/04/06 00:20:34;;;;;;;1.63;0.77;;;12.70;99.90;;;;;;6135687;23;20458;-80
2024/04/06 00:23:00;;;;;;;1.35;0.65;;;12.60;99.90;;;;;;6111571;23;20327;-79
2024/04/06 00:25:27;;;;;;;1.17;0.50;;;12.60;99.90;;;;;;6134584;23;20465;-79
2024/04/06 00:27:53;;;;;;;2.97;0.60;;;12.60;99.90;;;;;;6171219;23;20437;-79
2024/04/06 00:30:20;;;;;;;1.50;0.63;;;12.60;99.90;;;;;;6163036;23;20001;-79
2024/04/06 00:32:46;;;;;;;2.35;0.60;;;12.50;99.90;;;;;;6146235;23;20008;-80
2024/04/06 00:35:12;;;;;;;1.20;0.55;;;12.50;99.90;;;;;;6171903;23;20334;-79
2024/04/06 00:37:39;;;;;;;1.60;0.70;;;12.50;99.90;;;;;;6171846;23;20157;-81
2024/04/06 00:40:06;;;;;;;1.42;0.70;;;12.50;99.90;;;;;;6108866;23;20024;-80
2024/04/06 00:42:32;;;;;;;1.50;0.57;;;12.50;99.90;;;;;;6086322;23;20016;-80
2024/04/06 00:44:59;;;;;;;1.27;0.57;;;12.50;99.90;;;;;;6110306;23;20020;-79
2024/04/06 00:47:25;;;;;;;3.42;0.90;;;12.50;99.90;;;;;;6169789;23;20012;-81
2024/04/06 00:49:52;;;;;;;2.05;0.80;;;12.50;99.90;;;;;;6143826;23;20005;-79
2024/04/06 00:52:18;;;;;;;1.92;0.70;;;12.50;99.90;;;;;;6171698;23;20005;-79
2024/04/06 00:54:45;;;;;;;1.25;0.55;;;12.60;99.90;;;;;;6133145;23;20346;-79
2024/04/06 00:57:12;;;;;;;2.47;0.65;;;12.70;99.90;;;;;;6145704;23;20335;-80
2024/04/06 00:59:39;;;;;;;1.40;0.60;;;12.70;99.90;;;;;;6172034;23;20432;-79
2024/04/06 01:02:06;;;;;;;2.13;0.77;;;12.80;99.90;;;;;;6086972;23;20025;-78
2024/04/06 01:04:32;;;;;;;1.65;0.70;;;12.80;99.90;;;;;;6136065;23;20017;-80
2024/04/06 01:06:59;;;;;;;1.55;0.60;;;12.80;99.90;;;;;;6135926;23;20012;-77
2024/04/06 01:09:25;;;;;;;1.42;0.50;;;12.90;99.90;;;;;;6136576;23;20013;-80
2024/04/06 01:11:52;;;;;;;2.63;0.70;;;12.90;99.90;;;;;;6135641;23;20013;-79
2024/04/06 01:14:19;;;;;;;3.10;0.93;;;12.90;99.90;;;;;;6111275;23;20016;-79
2024/04/06 01:16:46;;;;;;;1.67;0.93;;;12.90;99.90;;;;;;6111852;23;20032;-80
2024/04/06 01:19:12;;;;;;;3.00;1.00;;;12.90;99.90;;;;;;6136698;23;20049;-80
2024/04/06 01:21:38;;;;;;;2.72;1.00;;;12.90;99.90;;;;;;6146971;23;20005;-80
2024/04/06 01:24:05;;;;;;;4.38;1.42;;;12.90;99.90;;;;;;6146873;23;20598;-79
2024/04/06 01:26:32;;;;;;;1.90;0.80;;;12.90;99.90;;;;;;6146604;23;20123;-80
2024/04/06 01:28:58;;;;;;;1.58;0.93;;;12.90;99.90;;;;;;6194330;23;20005;-80
2024/04/06 01:31:25;;;;;;;2.63;1.10;;;13.00;99.90;;;;;;6147323;23;20013;-81
2024/04/06 01:33:51;;;;;;;1.73;0.73;;;13.00;99.90;;;;;;6113134;23;20020;-81
2024/04/06 01:36:18;;;;;;;2.08;0.68;;;13.10;99.90;;;;;;6137697;23;20019;-80
2024/04/06 01:38:44;;;;;;;3.00;0.90;;;13.10;99.90;;;;;;6148921;23;20013;-80
2024/04/06 01:41:11;;;;;;;1.48;0.70;;;13.10;99.90;;;;;;6135189;23;20017;-80
2024/04/06 01:43:37;;;;;;;2.58;0.85;;;13.10;99.90;;;;;;6138031;23;20017;-79
2024/04/06 01:46:04;;;;;;;1.85;0.70;;;13.20;99.90;;;;;;6186492;23;20009;-79
2024/04/06 01:48:31;;;;;;;1.77;0.82;;;13.20;99.90;;;;;;6113948;23;20466;-79
2024/04/06 01:50:57;;;;;;;1.52;0.60;;;13.20;99.90;;;;;;6112659;23;20005;-80
2024/04/06 01:53:24;;;;;;;2.00;0.80;;;13.20;99.90;;;;;;6089000;23;20005;-80
2024/04/06 01:55:50;;;;;;;1.83;0.57;;;13.20;99.90;;;;;;6110987;23;20467;-81
2024/04/06 01:58:16;;;;;;;2.65;0.68;;;13.30;99.90;;;;;;6134855;23;20024;-80
2024/04/06 02:00:42;;;;;;;2.17;0.57;;;13.30;99.90;;;;;;6111838;23;20016;-77
2024/04/06 02:03:09;;;;;;;1.60;0.77;;;13.30;99.90;;;;;;6173055;23;20013;-80
2024/04/06 02:05:36;;;;;;;1.40;0.70;;;13.30;99.90;;;;;;6111810;23;20446;-80
2024/04/06 02:08:02;;;;;;;1.13;0.60;;;13.30;99.90;;;;;;6137648;23;20020;-80
2024/04/06 02:10:29;;;;;;;1.85;0.50;;;13.30;99.90;;;;;;6136294;23;20467;-80
2024/04/06 02:12:55;;;;;;;1.88;0.57;;;13.30;99.90;;;;;;6137894;23;20441;-80
2024/04/06 02:15:22;;;;;;;1.88;0.57;;;13.30;99.90;;;;;;6136590;23;20020;-81
2024/04/06 02:17:49;;;;;;;1.95;0.70;;;13.30;99.90;;;;;;6114647;23;20024;-80
2024/04/06 02:20:15;;;;;;;1.30;0.60;;;13.30;99.90;;;;;;6139707;23;20032;-78
2024/04/06 02:22:41;;;;;;;2.00;0.80;;;13.30;99.90;;;;;;6176341;23;20420;-79
2024/04/06 02:25:08;;;;;;;2.42;0.50;;;13.20;99.90;;;;;;6139291;23;20013;-78
2024/04/06 02:27:34;;;;;;;1.60;0.70;;;13.20;99.90;;;;;;6150294;23;20008;-78
2024/04/06 02:30:02;;;;;;;2.28;0.70;;;13.10;99.90;;;;;;6169157;23;20001;-78
2024/04/06 02:32:29;;;;;;;1.23;0.70;;;13.10;99.90;;;;;;6173444;23;20462;-78
2024/04/06 02:34:55;;;;;;;1.70;0.77;;;13.00;99.90;;;;;;6148199;23;20013;-78
2024/04/06 02:37:22;;;;;;;3.38;0.70;;;13.00;99.90;;;;;;6138735;23;20016;-80
2024/04/06 02:39:48;;;;;;;1.48;0.57;;;13.00;99.90;;;;;;6161976;23;20400;-79
2024/04/06 02:42:14;;;;;;;1.38;0.55;;;13.00;99.90;;;;;;6196727;23;20020;-79
2024/04/06 02:44:41;;;;;;;1.58;0.50;;;12.90;99.90;;;;;;6139163;23;20020;-79
2024/04/06 02:47:07;;;;;;;2.40;0.93;;;12.90;99.90;;;;;;6174947;23;20006;-79
2024/04/06 02:49:34;;;;;;;1.90;0.60;;;12.90;99.90;;;;;;6112871;23;20017;-79
2024/04/06 02:52:00;;;;;;;1.75;0.63;;;12.90;99.90;;;;;;6138483;23;20061;-79
2024/04/06 02:54:26;;;;;;;1.80;0.75;;;12.90;99.90;;;;;;6138298;23;20017;-78
2024/04/06 02:56:53;;;;;;;1.42;0.50;;;12.90;99.90;;;;;;6137702;23;20435;-78
2024/04/06 02:59:19;;;;;;;1.40;0.70;;;12.90;99.90;;;;;;6138246;23;20013;-78
2024/04/06 03:01:46;;;;;;;1.42;0.60;;;12.80;99.90;;;;;;6113388;23;20478;-78
2024/04/06 03:04:12;;;;;;;1.10;0.50;;;12.80;99.90;;;;;;6138243;23;20021;-78
2024/04/06 03:06:39;;;;;;;2.13;0.80;;;12.80;99.90;;;;;;6137673;23;20009;-78
2024/04/06 03:09:05;;;;;;;2.28;0.60;;;12.70;99.90;;;;;;6113369;23;20561;-79
2024/04/06 03:11:31;;;;;;;1.10;0.60;;;12.70;99.90;;;;;;6172745;23;20009;-78
2024/04/06 03:13:57;;;;;;;1.40;0.60;;;12.60;99.90;;;;;;6149268;23;20016;-78
2024/04/06 03:16:24;;;;;;;3.10;0.90;;;12.50;99.90;;;;;;6148622;23;20024;-78
2024/04/06 03:18:50;;;;;;;1.42;0.60;;;12.50;99.90;;;;;;6171900;23;20887;-79
2024/04/06 03:21:16;;;;;;;1.00;0.50;;;12.40;99.90;;;;;;6173644;23;20016;-78
2024/04/06 03:23:43;;;;;;;1.40;0.60;;;12.40;99.90;;;;;;6113160;23;20024;-78
2024/04/06 03:26:09;;;;;;;1.25;0.70;;;12.40;99.90;;;;;;6172972;23;20009;-78
2024/04/06 03:28:36;;;;;;;1.50;0.43;;;12.30;99.90;;;;;;6137373;23;20440;-78
2024/04/06 03:31:03;;;;;;;2.95;0.60;;;12.20;99.90;;;;;;6172636;23;20020;-78
2024/04/06 03:33:29;;;;;;;2.50;0.60;;;12.20;99.90;;;;;;6173889;23;20516;-78
2024/04/06 03:35:56;;;;;;;1.88;0.70;;;12.10;99.90;;;;;;6187530;23;20021;-79
2024/04/06 03:38:22;;;;;;;2.33;0.65;;;12.10;99.90;;;;;;6113452;23;20009;-78
2024/04/06 03:40:48;;;;;;;1.83;0.60;;;12.00;99.90;;;;;;6113869;23;20021;-78
2024/04/06 03:43:15;;;;;;;3.15;0.85;;;12.00;99.90;;;;;;6163455;23;20021;-78
2024/04/06 03:45:43;;;;;;;1.88;0.70;;;12.00;99.90;;;;;;6148814;23;20028;-79
2024/04/06 03:48:10;;;;;;;2.15;0.50;;;11.90;99.90;;;;;;6138121;23;20009;-79
2024/04/06 03:50:36;;;;;;;1.00;0.52;;;11.90;99.90;;;;;;6113525;23;20013;-80
2024/04/06 03:53:02;;;;;;;2.53;0.70;;;11.90;99.90;;;;;;6149061;23;20470;-78
2024/04/06 03:55:29;;;;;;;1.65;0.60;;;11.80;99.90;;;;;;6173481;23;20012;-81
2024/04/06 03:57:55;;;;;;;1.50;0.60;;;11.80;99.90;;;;;;6138542;23;20013;-79
2024/04/06 04:00:22;;;;;;;2.88;0.50;;;11.80;99.90;;;;;;6113577;23;20017;-80
2024/04/06 04:02:48;;;;;;;1.75;0.60;;;11.80;99.90;;;;;;6173495;23;20001;-79
2024/04/06 04:05:15;;;;;;;1.40;0.65;;;11.80;99.90;;;;;;6138318;23;20013;-80
2024/04/06 04:07:41;;;;;;;1.08;0.50;;;11.80;99.90;;;;;;6113473;23;20399;-79
2024/04/06 04:10:08;;;;;;;1.45;0.70;;;11.80;99.90;;;;;;6148521;23;20338;-79
2024/04/06 04:12:34;;;;;;;1.35;0.50;;;11.70;99.90;;;;;;6173549;23;20509;-80
2024/04/06 04:15:02;;;;;;;1.55;0.52;;;11.70;99.90;;;;;;6138668;23;20031;-79
2024/04/06 04:17:32;;;;;;;1.60;0.60;;;11.70;99.90;;;;;;6090032;23;20020;-80
2024/04/06 04:19:59;;;;;;;1.52;0.47;;;11.60;99.90;;;;;;6113274;23;20458;-81
2024/04/06 04:22:26;;;;;;;1.92;0.63;;;11.60;99.90;;;;;;6089239;23;20493;-80
2024/04/06 04:24:53;;;;;;;2.85;0.90;;;11.60;99.90;;;;;;6088891;23;20020;-79
2024/04/06 04:27:19;;;;;;;1.23;0.50;;;11.60;99.90;;;;;;6172535;23;20001;-80
2024/04/06 04:29:46;;;;;;;1.02;0.60;;;11.60;99.90;;;;;;6142511;23;20009;-79
2024/04/06 04:32:12;;;;;;;2.20;0.73;;;11.50;99.90;;;;;;6113628;23;20028;-78
2024/04/06 04:34:38;;;;;;;1.23;0.60;;;11.50;99.90;;;;;;6148003;23;20013;-79
2024/04/06 04:37:05;;;;;;;1.45;0.60;;;11.50;99.90;;;;;;6113467;23;20021;-81
2024/04/06 04:39:32;;;;;;;0.93;0.52;;;11.50;99.90;;;;;;6112692;23;20032;-81
2024/04/06 04:41:58;;;;;;;1.65;0.70;;;11.50;99.90;;;;;;6174864;23;20897;-79
2024/04/06 04:44:26;;;;;;;1.88;0.65;;;11.50;99.90;;;;;;6136360;23;20021;-81
2024/04/06 04:46:53;;;;;;;2.35;0.70;;;11.50;99.90;;;;;;6173190;23;20008;-80
2024/04/06 04:49:19;;;;;;;1.65;0.60;;;11.50;99.90;;;;;;6172729;23;20012;-81
2024/04/06 04:51:46;;;;;;;2.40;0.70;;;11.60;99.90;;;;;;6113535;23;20017;-80
2024/04/06 04:54:12;;;;;;;1.33;0.60;;;11.60;99.90;;;;;;6138177;23;20020;-81
2024/04/06 04:56:38;;;;;;;1.40;0.60;;;11.60;99.90;;;;;;6138494;23;20291;-81
2024/04/06 04:59:05;;;;;;;2.03;0.70;;;11.60;99.90;;;;;;6138388;23;20044;-81
2024/04/06 05:01:32;;;;;;;3.10;1.10;;;11.70;99.90;;;;;;6137280;23;20485;-81
2024/04/06 05:03:59;;;;;;;2.50;1.13;;;11.70;99.90;;;;;;6089425;23;20044;-82
2024/04/06 05:06:25;;;;;;;1.95;0.90;;;11.70;99.90;;;;;;6189036;23;20076;-81
2024/04/06 05:08:52;;;;;;;2.25;0.98;;;11.80;99.90;;;;;;6140124;23;20013;-80
2024/04/06 05:11:19;;;;;;;2.05;0.80;;;11.80;99.90;;;;;;6139918;23;20017;-81
2024/04/06 05:13:45;;;;;;;2.08;0.80;;;11.90;99.90;;;;;;6125724;23;20013;-81
2024/04/06 05:16:11;;;;;;;1.88;0.75;;;11.90;99.90;;;;;;6114642;23;20009;-81
2024/04/06 05:18:38;;;;;;;1.65;0.70;;;11.90;99.90;;;;;;6174440;23;20005;-78
2024/04/06 05:21:04;;;;;;;2.20;1.40;;;11.90;99.90;;;;;;6114527;23;20044;-80
2024/04/06 05:23:31;;;;;;;2.00;0.93;;;12.00;99.90;;;;;;6139965;23;20334;-79
2024/04/06 05:25:57;;;;;;;2.10;1.10;;;12.00;99.90;;;;;;6118300;23;20475;-79
2024/04/06 05:28:28;;;;;;;3.28;1.25;;;12.00;99.90;;;;;;6149954;23;20021;-79
2024/04/06 05:30:55;;;;;;;3.40;2.20;;;12.10;99.90;;;;;;6139195;23;20459;-80
2024/04/06 05:33:22;;;;;;;3.28;1.38;;;12.10;99.90;;;;;;6140546;23;20013;-81
2024/04/06 05:35:50;;;;;;;3.03;1.75;;;12.20;99.90;;;;;;6125502;23;20005;-79
2024/04/06 05:38:18;;;;;;;3.10;1.52;;;12.30;99.90;;;;;;6176102;23;20012;-82
2024/04/06 05:40:46;;;;;;;3.25;1.60;;;12.30;99.90;;;;;;6114904;23;20024;-79
2024/04/06 05:43:13;;;;;;;4.18;1.48;;;12.40;99.90;;;;;;6150242;23;20024;-79
2024/04/06 05:45:41;;;;;;;3.03;1.50;;;12.40;99.90;;;;;;6149426;23;20016;-79
2024/04/06 05:48:08;;;;;;;2.88;1.50;;;12.50;99.90;;;;;;6139659;23;20403;-80
2024/04/06 05:50:36;;;;;;;4.18;1.40;;;12.50;99.90;;;;;;6115605;23;20001;-80
2024/04/06 05:53:04;;;;;;;3.53;1.80;;;12.50;99.90;;;;;;6116402;23;20443;-80
2024/04/06 05:55:31;;;;;;;4.38;1.80;;;12.50;99.90;;;;;;6139585;23;20020;-80
2024/04/06 05:57:58;;;;;;;3.45;1.75;;;12.50;99.90;;;;;;6149413;23;20020;-82
2024/04/06 06:00:25;;;;;;;3.20;1.80;;;12.60;99.90;;;;;;6138547;23;20013;-80
2024/04/06 06:02:52;;;;;;;2.58;1.55;;;12.60;99.90;;;;;;6114555;23;20013;-81
2024/04/06 06:05:20;;;;;;;3.50;1.65;;;12.60;99.90;;;;;;6092038;23;20021;-80
2024/04/06 06:07:47;;;;;;;1.90;1.30;;;12.70;99.90;;;;;;6153088;23;20015;-81
2024/04/06 06:10:13;;;;;;;2.47;1.45;;;12.70;99.90;;;;;;6092868;23;20013;-81
2024/04/06 06:12:41;;;;;;;3.40;1.75;;;12.70;99.90;;;;;;6117654;23;20009;-81
2024/04/06 06:15:07;;;;;;;3.45;1.40;;;12.70;99.90;;;;;;6118163;23;20358;-79
2024/04/06 06:17:34;;;;;;;2.90;1.92;;;12.80;99.90;;;;;;6117416;23;20031;-80
2024/04/06 06:20:01;;;;;;;5.45;1.92;;;12.90;99.90;;;;;;6141027;23;20016;-82
2024/04/06 06:22:29;;;;;;;5.43;2.03;;;13.00;99.90;;;;;;6093192;23;20021;-82
2024/04/06 06:24:57;;;;;;;4.78;1.52;;;13.10;99.90;;;;;;6177000;23;20009;-80
2024/04/06 06:27:23;;;;;;;2.92;1.60;;;13.40;99.90;;;;;;6153183;23;20005;-81
2024/04/06 06:29:50;;;;;;;2.80;1.20;;;13.60;99.90;;;;;;6146075;23;20001;-80
2024/04/06 06:32:17;;;;;;;4.45;1.52;;;13.60;99.90;;;;;;6141197;23;20020;-81
2024/04/06 06:34:44;;;;;;;3.15;1.00;;;13.60;99.90;;;;;;6177459;23;20009;-80
2024/04/06 06:37:11;;;;;;;3.47;1.40;;;13.60;99.90;;;;;;6117871;23;20616;-81
2024/04/06 06:39:37;;;;;;;1.63;1.00;;;13.60;99.90;;;;;;6151833;23;20482;-81
2024/04/06 06:42:04;;;;;;;2.72;1.38;;;13.60;99.90;;;;;;6142496;23;20016;-78
2024/04/06 06:44:30;;;;;;;3.78;1.02;;;13.70;99.90;;;;;;6152848;23;20471;-80
2024/04/06 06:46:57;;;;;;;2.47;1.00;;;13.90;99.90;;;;;;6118341;23;20009;-79
2024/04/06 06:49:23;;;;;;;2.30;1.08;;;14.20;99.90;;;;;;6142557;23;20013;-79
2024/04/06 06:51:49;;;;;;;3.55;1.38;;;14.40;99.90;;;;;;6142088;23;20013;-80
2024/04/06 06:54:16;;;;;;;3.50;1.77;;;14.60;99.90;;;;;;6141609;23;20032;-79
2024/04/06 06:56:43;;;;;;;2.35;0.90;;;14.80;99.90;;;;;;6116980;23;20013;-79
2024/04/06 06:59:09;;;;;;;2.33;0.80;;;15.00;99.90;;;;;;6177051;23;20004;-80
2024/04/06 07:01:36;;;;;;;2.20;0.90;;;15.00;99.90;;;;;;6167326;23;20012;-80
2024/04/06 07:04:03;;;;;;;2.22;0.90;;;15.00;99.90;;;;;;6151783;23;20005;-81
2024/04/06 07:06:29;;;;;;;2.55;0.65;;;15.00;99.90;;;;;;6092849;23;20013;-80
2024/04/06 07:08:55;;;;;;;3.00;0.98;;;15.00;99.90;;;;;;6117512;23;20024;-80
2024/04/06 07:11:22;;;;;;;1.50;0.65;;;15.10;99.90;;;;;;6142120;23;20009;-80
2024/04/06 07:13:48;;;;;;;2.67;0.85;;;15.30;99.90;;;;;;6117034;23;20013;-79
2024/04/06 07:16:15;;;;;;;2.30;1.00;;;15.40;99.90;;;;;;6118144;23;20016;-79
2024/04/06 07:18:42;;;;;;;2.88;0.82;;;15.50;99.90;;;;;;6177059;23;20323;-78
2024/04/06 07:21:12;;;;;;;2.60;0.82;;;15.70;99.90;;;;;;6140830;23;20013;-79
2024/04/06 07:23:40;;;;;;;3.00;0.88;;;15.90;99.90;;;;;;6152658;23;20001;-78
2024/04/06 07:26:07;;;;;;;2.80;0.73;;;16.10;99.90;;;;;;6140629;23;20013;-79
2024/04/06 07:28:37;;;;;;;2.78;0.90;;;16.20;99.90;;;;;;6126765;23;20005;-79
2024/04/06 07:31:04;;;;;;;2.65;0.70;;;16.30;99.90;;;;;;6126516;23;20477;-79
2024/04/06 07:33:31;;;;;;;3.03;0.73;;;16.50;99.90;;;;;;6127051;23;20795;-78
2024/04/06 07:35:58;;;;;;;1.98;0.60;;;16.60;99.90;;;;;;6151335;23;20001;-78
2024/04/06 07:38:27;;;;;;;1.65;0.60;;;16.70;99.90;;;;;;6141089;23;20454;-79
2024/04/06 07:40:57;;;;;;;1.95;0.50;;;16.80;99.90;;;;;;6149772;23;20012;-80
2024/04/06 07:43:23;;;;;;;3.95;0.82;;;17.00;99.90;;;;;;6117157;23;20009;-82
2024/04/06 07:45:50;;;;;;;2.35;0.77;;;17.10;99.90;;;;;;6115588;23;20040;-80
2024/04/06 07:48:16;;;;;;;3.72;0.80;;;17.20;99.90;;;;;;6117458;23;20017;-82
2024/04/06 07:50:45;;;;;;;1.52;0.70;;;17.40;99.90;;;;;;6115670;23;20017;-82
2024/04/06 07:53:12;;;;;;;1.52;0.70;;;17.50;99.90;;;;;;6092782;23;20016;-81
2024/04/06 07:55:39;;;;;;;3.60;0.70;;;17.70;99.90;;;;;;6116163;23;20017;-80
2024/04/06 07:58:05;;;;;;;1.38;0.60;;;17.80;99.90;;;;;;6166466;23;20008;-81
2024/04/06 08:00:33;;;;;;;2.60;0.57;;;17.80;99.90;;;;;;6115360;23;20005;-80
2024/04/06 08:03:00;;;;;;;2.17;0.50;;;17.90;99.90;;;;;;6141161;23;20023;-80
2024/04/06 08:05:26;;;;;;;3.40;0.50;;;18.10;99.90;;;;;;6140740;23;20017;-79
2024/04/06 08:07:53;;;;;;;3.58;0.80;;;18.20;99.90;;;;;;6139693;23;20358;-79
2024/04/06 08:10:21;;;;;;;5.65;0.90;;;18.30;99.90;;;;;;6115254;23;20017;-79
2024/04/06 08:12:48;;;;;;;2.30;0.68;;;18.40;99.90;;;;;;6150040;23;20346;-78
2024/04/06 08:15:16;;;;;;;2.95;0.80;;;18.50;99.90;;;;;;6115668;23;20012;-79
2024/04/06 08:17:48;;;;;;;3.85;1.30;;;18.60;99.90;;;;;;6115632;23;20017;-78
2024/04/06 08:20:16;;;;;;;2.72;0.98;;;18.70;99.90;;;;;;6091816;23;20017;-79
2024/04/06 08:22:43;;;;;;;4.53;1.10;;;18.80;99.90;;;;;;6115246;23;20461;-78
2024/04/06 08:25:11;;;;;;;4.93;1.70;;;18.90;99.90;;;;;;6150250;23;20008;-78
2024/04/06 08:27:38;;;;;;;2.58;0.90;;;19.00;99.90;;;;;;6150067;23;20005;-80
2024/04/06 08:30:07;;;;;;;3.20;0.95;;;19.10;99.90;;;;;;6139834;23;20013;-79
2024/04/06 08:32:36;;;;;;;2.30;0.60;;;19.20;99.90;;;;;;6126233;23;20482;-79
2024/04/06 08:35:03;;;;;;;2.55;0.60;;;19.30;99.90;;;;;;6140320;23;20028;-81
2024/04/06 08:37:30;;;;;;;1.65;0.60;;;19.40;99.90;;;;;;6116098;23;20021;-79
2024/04/06 08:39:56;;;;;;;1.85;0.60;;;19.50;99.90;;;;;;6188133;23;20013;-79
2024/04/06 08:42:23;;;;;;;3.08;0.50;;;19.50;99.90;;;;;;6150119;23;20012;-79
2024/04/06 08:44:50;;;;;;;4.20;0.70;;;19.60;99.90;;;;;;6175060;23;20007;-78
2024/04/06 08:47:20;;;;;;;2.58;0.50;;;19.60;99.90;;;;;;6199693;23;20005;-79
2024/04/06 08:49:47;;;;;;;0.73;0.30;;;19.70;99.90;;;;;;6173690;23;20001;-79
2024/04/06 08:52:14;;;;;;;2.13;0.60;;;19.80;99.90;;;;;;6115513;23;20017;-78
2024/04/06 08:54:42;;;;;;;3.58;1.13;;;19.90;99.90;;;;;;6176057;23;20007;-79
2024/04/06 08:57:08;;;;;;;1.92;0.50;;;20.10;99.90;;;;;;6090561;23;20013;-78
2024/04/06 08:59:35;;;;;;;2.10;0.50;;;20.10;99.90;;;;;;6139962;23;20579;-79
2024/04/06 09:02:02;;;;;;;1.88;0.50;;;20.10;99.90;;;;;;6113859;23;20327;-78
2024/04/06 09:04:28;;;;;;;3.17;0.60;;;20.20;99.90;;;;;;6174815;23;20024;-77
2024/04/06 09:06:55;;;;;;;3.10;0.60;;;20.30;99.90;;;;;;6150090;23;20001;-77
2024/04/06 09:09:21;;;;;;;1.52;0.60;;;20.40;99.90;;;;;;6119515;23;1157140;-78
2024/04/06 09:11:48;;;;;;;2.20;0.40;;;20.50;99.90;;;;;;6175511;23;20044;-78
2024/04/06 09:14:14;;;;;;;2.67;0.55;;;20.60;99.90;;;;;;6191182;23;20346;-78
2024/04/06 09:16:41;;;;;;;2.97;0.60;;;20.80;99.90;;;;;;6151483;23;20346;-79
2024/04/06 09:19:08;;;;;;;2.05;0.57;;;20.90;99.90;;;;;;6139627;23;20021;-77
2024/04/06 09:21:34;;;;;;;2.67;0.70;;;21.00;99.90;;;;;;6140073;23;20009;-77
2024/04/06 09:24:03;;;;;;;2.53;0.40;;;21.10;99.90;;;;;;6151411;23;20001;-77
2024/04/06 09:26:33;;;;;;;3.22;0.63;;;21.20;99.90;;;;;;6126682;23;20469;-79
2024/04/06 09:29:00;;;;;;;2.58;0.60;;;21.30;99.90;;;;;;6140405;23;20013;-77
2024/04/06 09:31:28;;;;;;;2.03;0.75;;;21.40;99.90;;;;;;6115532;23;20009;-78
2024/04/06 09:33:56;;;;;;;3.60;0.60;;;21.60;99.90;;;;;;6177154;23;20013;-77
2024/04/06 09:36:23;;;;;;;2.08;0.45;;;21.80;99.90;;;;;;6116131;23;20013;-78
2024/04/06 09:38:52;;;;;;;2.58;0.77;;;22.00;99.90;;;;;;6150717;23;20001;-78
2024/04/06 09:41:19;;;;;;;2.25;0.60;;;22.20;99.90;;;;;;6176402;23;20347;-78
2024/04/06 09:43:53;;;;;;;3.25;0.60;;;22.40;99.90;;;;;;6126288;23;20032;-77
2024/04/06 09:46:20;;;;;;;4.53;0.60;;;22.50;99.90;;;;;;6092339;23;20605;-77
2024/04/06 09:48:47;;;;;;;2.00;0.50;;;22.50;99.90;;;;;;6141164;23;20013;-81
2024/04/06 09:51:14;;;;;;;3.03;1.02;;;22.40;99.90;;;;;;6117329;23;20438;-82
2024/04/06 09:53:41;;;;;;;2.80;1.33;;;22.40;99.90;;;;;;6143754;23;20020;-78
2024/04/06 09:56:09;;;;;;;3.33;1.10;;;22.40;99.90;;;;;;6118397;23;20537;-77
2024/04/06 09:58:37;;;;;;;3.65;1.33;;;22.50;99.90;;;;;;6128397;23;20008;-78
2024/04/06 10:01:11;;;;;;;2.20;0.80;;;22.60;99.90;;;;;;6142001;23;20005;-77
2024/04/06 10:03:48;;;;;;;2.15;1.30;;;22.70;99.90;;;;;;6178728;23;20513;-78
2024/04/06 10:06:17;;;;;;;3.17;1.20;;;22.70;99.90;;;;;;6151504;23;20727;-79
2024/04/06 10:08:51;;;;;;;2.45;1.33;;;22.80;99.90;;;;;;6148259;23;20417;-78
2024/04/06 10:11:22;;;;;;;5.05;1.45;;;22.90;99.90;;;;;;6127497;23;20472;-80
2024/04/06 10:13:53;;;;;;;1.40;0.60;;;23.00;99.90;;;;;;6152782;23;20425;-80
2024/04/06 10:16:25;;;;;;;3.05;0.80;;;23.10;99.90;;;;;;6118412;23;20069;-83
2024/04/06 10:18:51;;;;;;;2.72;0.57;;;23.10;99.90;;;;;;6141660;23;20367;-80
2024/04/06 10:21:19;;;;;;;2.05;0.60;;;23.10;99.90;;;;;;6117756;23;20023;-80
2024/04/06 10:23:47;;;;;;;3.90;0.50;;;23.00;99.90;;;;;;6143024;23;20016;-81
2024/04/06 10:26:16;;;;;;;2.10;0.57;;;23.00;99.90;;;;;;6143119;23;20020;-82
2024/04/06 10:28:44;;;;;;;2.63;1.02;;;23.10;99.90;;;;;;6126594;23;20011;-81
2024/04/06 10:31:11;;;;;;;2.00;0.70;;;23.00;99.90;;;;;;6093107;23;20024;-83
2024/04/06 10:33:43;;;;;;;1.77;0.50;;;23.10;99.90;;;;;;6183804;23;20017;-82
2024/04/06 10:36:10;;;;;;;;;;;23.20;99.90;;;;;;6186336;23;20009;-82
2024/04/06 10:38:39;;;;;;;2.10;0.50;;;23.30;99.90;;;;;;6182787;23;20754;-82
2024/04/06 10:41:06;;;;;;;2.50;0.70;;;23.50;99.90;;;;;;6177720;23;20438;-83
2024/04/06 10:43:35;;;;;;;1.85;0.80;;;23.80;99.90;;;;;;6140975;23;20465;-81
2024/04/06 10:46:03;;;;;;;1.65;0.40;;;24.00;99.90;;;;;;6126589;23;20012;-78
2024/04/06 10:48:30;;;;;;;45.70;29.25;;;24.10;99.90;;;;;;6140060;23;20033;-80
2024/04/06 10:50:58;;;;;;;9.73;5.93;;;24.00;99.90;;;;;;6150739;23;20015;-81
2024/04/06 10:53:28;;;;;;;3.67;1.80;;;24.00;99.90;;;;;;6177747;23;20028;-81
2024/04/06 10:55:56;;;;;;;4.85;0.70;;;24.00;99.90;;;;;;6141249;23;20309;-79
2024/04/06 10:58:23;;;;;;;4.13;0.50;;;24.00;99.90;;;;;;6140327;23;20016;-79
2024/04/06 11:00:49;;;;;;;2.15;0.65;;;24.10;99.90;;;;;;6150586;23;20001;-79
2024/04/06 11:03:19;;;;;;;2.85;0.45;;;24.30;99.90;;;;;;6117045;23;20020;-80
2024/04/06 11:05:47;;;;;;;1.95;0.50;;;24.40;99.90;;;;;;6116577;23;20009;-80
2024/04/06 11:08:13;;;;;;;2.22;1.05;;;24.50;99.90;;;;;;6173386;23;20005;-79
2024/04/06 11:10:40;;;;;;;2.88;0.50;;;24.70;99.90;;;;;;6115979;23;20017;-80
2024/04/06 11:13:07;;;;;;;1.48;0.40;;;24.70;99.90;;;;;;6141720;23;20359;-80
2024/04/06 11:15:34;;;;;;;1.52;0.40;;;24.70;99.90;;;;;;6116311;23;20013;-80
2024/04/06 11:18:01;;;;;;;1.83;0.60;;;24.90;99.90;;;;;;6141334;23;20717;-82
2024/04/06 11:20:31;;;;;;;4.28;0.80;;;25.10;99.90;;;;;;6141120;23;20020;-81
2024/04/06 11:22:58;;;;;;;1.65;0.80;;;25.20;99.90;;;;;;6091193;23;20052;-81
2024/04/06 11:25:26;;;;;;;2.60;0.50;;;25.40;99.90;;;;;;6174202;23;19997;-78
2024/04/06 11:27:53;;;;;;;1.60;0.50;;;25.70;99.90;;;;;;6151318;23;20001;-78
2024/04/06 11:30:20;;;;;;;1.58;0.52;;;26.00;99.90;;;;;;6141860;23;20009;-80
2024/04/06 11:32:50;;;;;;;2.78;0.93;;;26.10;99.90;;;;;;6140596;23;20009;-78
2024/04/06 11:35:18;;;;;;;1.75;0.60;;;26.10;99.90;;;;;;6176702;23;20005;-81
2024/04/06 11:37:44;;;;;;;3.00;0.80;;;26.10;99.90;;;;;;6174959;23;20005;-80
2024/04/06 11:40:11;;;;;;;3.03;1.15;;;26.00;99.90;;;;;;6176306;23;20442;-80
2024/04/06 11:42:38;;;;;;;1.58;0.43;;;26.10;99.90;;;;;;6139624;23;20032;-81
2024/04/06 11:45:04;;;;;;;2.28;0.55;;;26.30;99.90;;;;;;6139375;23;20008;-79
2024/04/06 11:47:32;;;;;;;2.30;0.50;;;26.50;99.90;;;;;;6115739;23;20358;-79
2024/04/06 11:49:59;;;;;;;2.30;1.20;;;26.70;99.90;;;;;;6125562;23;20005;-80
2024/04/06 11:52:26;;;;;;;3.92;2.80;;;26.80;99.80;;;;;;6114729;23;20009;-80
2024/04/06 11:54:53;;;;;;;6.22;4.25;;;26.90;99.30;;;;;;6149260;23;20005;-80
2024/04/06 11:57:19;;;;;;;14.80;10.18;;;27.00;98.90;;;;;;6176230;23;20001;-80
2024/04/06 11:59:46;;;;;;;6.53;4.15;;;27.10;98.90;;;;;;6140459;23;20473;-79
2024/04/06 12:02:12;;;;;;;6.47;3.97;;;27.10;98.70;;;;;;6115724;23;20020;-81
2024/04/06 12:04:39;;;;;;;4.88;2.17;;;27.20;98.40;;;;;;6139118;23;20016;-79
2024/04/06 12:07:06;;;;;;;9.00;4.13;;;27.40;98.50;;;;;;6140657;23;20356;-81
2024/04/06 12:09:32;;;;;;;4.93;2.33;;;27.50;98.10;;;;;;6166477;23;20008;-80
2024/04/06 12:11:59;;;;;;;3.78;1.75;;;27.70;97.90;;;;;;6150016;23;20009;-80
2024/04/06 12:14:25;;;;;;;2.92;0.80;;;27.80;97.00;;;;;;6139402;23;20384;-78
2024/04/06 12:16:52;;;;;;;1.15;0.50;;;28.00;96.90;;;;;;6174878;23;20382;-78
2024/04/06 12:19:18;;;;;;;2.47;0.50;;;28.40;96.90;;;;;;6199089;23;20339;-79
2024/04/06 12:21:45;;;;;;;2.10;0.55;;;28.70;96.20;;;;;;6139706;23;20016;-78
2024/04/06 12:24:11;;;;;;;2.38;0.52;;;29.00;95.80;;;;;;6174194;23;20382;-79
2024/04/06 12:26:38;;;;;;;2.92;0.77;;;29.40;95.70;;;;;;6113071;23;20544;-79
2024/04/06 12:29:04;;;;;;;1.98;0.57;;;30.00;95.30;;;;;;6174552;23;20016;-79
2024/04/06 12:31:31;;;;;;;1.38;0.60;;;30.50;94.10;;;;;;6148381;23;20006;-79
2024/04/06 12:33:57;;;;;;;1.05;0.45;;;30.90;93.40;;;;;;6089386;23;20040;-79
2024/04/06 12:36:26;;;;;;;1.02;0.40;;;31.20;92.50;;;;;;6117530;23;20013;-79
2024/04/06 12:38:55;;;;;;;1.33;0.45;;;31.10;91.50;;;;;;6117553;23;20427;-79
2024/04/06 12:41:21;;;;;;;2.58;0.52;;;30.70;90.60;;;;;;6117443;23;20346;-79
2024/04/06 12:43:48;;;;;;;1.13;0.50;;;30.00;89.90;;;;;;6143614;23;20350;-79
2024/04/06 12:46:14;;;;;;;2.92;0.50;;;29.50;90.30;;;;;;6153449;23;20009;-79